Atlantic - Newfoundland: Past 24 Hour Conditions

 

Îles de la Madeleine Airport

10:00 AM AST 01 March 2015
Disclaimer

This table is a summary of hourly weather conditions for the past 24 hours.
Please note that these observations might not always be representative of weather conditions over their associated marine area.

Date / Time
(AST)
Wind(knots) Conditions Visibility(km) Pressure(kPa) Air tempC) Relative humidity(%) Dew pointC) Wind Chill
01 March 2015
10:00 WSW 10 Mainly Sunny 32 103.5 -9 73 -13 -16
9:00 WSW 11 Mainly Sunny 32 103.5 -10 74 -14 -18
8:00 WSW 10 Mainly Sunny 32 103.5 -12 79 -15 -20
7:00 WSW 8 Mainly Sunny 32 103.5 -13 82 -16 -21
6:00 WSW 9 Mainly Clear 24 103.4 -14 83 -16 -22
5:00 WSW 9 N/A N/A 103.4 -14 83 -16 -22
4:00 WSW 11 N/A N/A 103.3 -12 81 -15 -21
3:00 W 12 N/A N/A 103.3 -11 78 -14 -19
2:00 WSW 18 N/A N/A 103.3 -9 73 -13 -19
1:00 SW 11 N/A N/A 103.2 -9 74 -13 -17
0:00 SW 14 N/A N/A 103.2 -9 77 -13 -18
28 February 2015
23:00 SW 13 Clear 24 103.3 -9 78 -13 -18
22:00 SW 15 gust 23 Clear 24 103.2 -9 76 -13 -19
21:00 SW 13 gust 22 Clear 24 103.2 -9 73 -13 -18
20:00 SW 13 gust 20 Clear 24 103.2 -10 70 -14 -18
19:00 SW 12 gust 21 Clear 24 103.2 -9 69 -14 -18
18:00 SW 12 gust 17 Mainly Clear 32 103.2 -10 71 -14 -18
17:00 WSW 14 gust 20 Sunny 32 103.1 -9 65 -15 -18
16:00 SW 17 gust 24 Sunny 32 103.1 -9 65 -14 -18
15:00 SW 15 Sunny 32 103.2 -9 70 -13 -18
14:00 WSW 18 gust 24 Mainly Sunny 32 103.2 -9 66 -14 -19
13:00 WSW 18 Mainly Sunny 32 103.2 -9 68 -14 -19
12:00 WSW 20 Sunny 32 103.2 -10 65 -16 -20
11:00 WSW 16 Sunny 32 103.2 -11 64 -16 -20
10:00 WSW 11 Mainly Sunny 32 103.2 -11 68 -16 -20

Zoom-in to make a selection

Map of Atlantic - Newfoundland marine weather areas Southwestern Grand Banks - 44138 Banquereau - 44139 Tail of the Bank - 44140 Nickerson Bank - 44251 Northeast Burgeo Bank - 44255 Blanc-Sablon Airport Cap Whittle Chevery Natashquan Airport Heath Point Miscou Island Grand Étang Ingonish Beach North Mountain St.Paul Island J.A. Douglas McCurdy Sydney Airport Charlottetown Airport East Point North Cape Argentia Bonavista Burgeo Cape Race Corner Brook Daniel's Harbour Englee Ferolle Point La Scie Port aux Basques Rocky Harbour Sagona Island St. Anthony Airport St. John's Int'l Airport St. Lawrence Stephenville Airport Twillingate Winterland Wreckhouse Cartwright Airport Mary's Harbour Grates Cove Pool's Island Marticot Island Long Pond Îles de la Madeleine Airport
Legend:
buoy Buoy
land station Land Station

Atlantic - Newfoundland Area

Another Region

What we are doing

Date modified: